createdAt,value
2017-11-10T00:01:00.055Z,17.20
2017-11-10T00:03:28.343Z,17.77
2017-11-10T00:05:56.604Z,18.10
2017-11-10T00:08:24.898Z,16.53
2017-11-10T00:10:53.176Z,17.80
2017-11-10T00:13:21.446Z,19.90
2017-11-10T00:15:49.713Z,14.80
2017-11-10T00:18:17.981Z,18.17
2017-11-10T00:20:46.273Z,17.10
2017-11-10T00:23:14.537Z,15.90
2017-11-10T00:25:42.823Z,17.60
2017-11-10T00:28:11.110Z,18.43
2017-11-10T00:30:39.381Z,16.40
2017-11-10T00:33:07.641Z,16.93
2017-11-10T00:35:35.948Z,17.03
2017-11-10T00:38:04.253Z,16.33
2017-11-10T00:40:33.305Z,16.87
2017-11-10T00:43:01.557Z,16.23
2017-11-10T00:45:29.873Z,14.60
2017-11-10T00:47:58.133Z,16.93
2017-11-10T00:50:26.413Z,16.40
2017-11-10T00:52:54.720Z,17.60
2017-11-10T00:55:22.994Z,17.40
2017-11-10T00:57:51.254Z,15.70
2017-11-10T01:00:19.645Z,16.47
2017-11-10T01:02:47.915Z,15.43
2017-11-10T01:05:16.282Z,15.93
2017-11-10T01:07:44.541Z,17.63
2017-11-10T01:10:12.955Z,17.70
2017-11-10T01:12:41.205Z,18.60
2017-11-10T01:15:09.479Z,16.20
2017-11-10T01:17:37.771Z,16.77
2017-11-10T01:20:06.028Z,14.83
2017-11-10T01:22:34.334Z,15.00
2017-11-10T01:25:02.597Z,16.17
2017-11-10T01:27:30.883Z,16.67
2017-11-10T01:29:59.171Z,16.30
2017-11-10T01:32:27.441Z,15.27
2017-11-10T01:34:55.727Z,17.13
2017-11-10T01:37:24.011Z,18.67
2017-11-10T01:39:53.037Z,16.30
2017-11-10T01:42:22.091Z,15.67
2017-11-10T01:44:50.466Z,14.87
2017-11-10T01:47:18.759Z,16.80
2017-11-10T01:49:53.798Z,17.80
2017-11-10T01:52:22.086Z,15.87
2017-11-10T01:54:51.118Z,15.87
2017-11-10T01:57:19.397Z,15.23
2017-11-10T01:59:47.669Z,16.40
2017-11-10T02:02:15.978Z,15.77
2017-11-10T02:04:44.362Z,15.90
2017-11-10T02:07:12.635Z,16.90
2017-11-10T02:09:40.895Z,17.10
2017-11-10T02:12:09.229Z,17.33
2017-11-10T02:14:38.290Z,17.60
2017-11-10T02:17:06.772Z,16.87
2017-11-10T02:19:35.036Z,14.00
2017-11-10T02:22:04.340Z,15.40
2017-11-10T02:24:32.615Z,15.80
2017-11-10T02:27:00.889Z,14.80
2017-11-10T02:29:29.184Z,15.17
2017-11-10T02:31:57.642Z,13.43
2017-11-10T02:34:25.909Z,14.73
2017-11-10T02:36:54.188Z,15.63
2017-11-10T02:39:28.296Z,13.73
2017-11-10T02:41:56.571Z,12.80
2017-11-10T02:44:24.829Z,13.40
2017-11-10T02:46:53.126Z,14.97
2017-11-10T02:49:21.387Z,14.10
2017-11-10T02:51:49.664Z,14.63
2017-11-10T02:54:17.921Z,13.70
2017-11-10T02:56:46.979Z,14.43
2017-11-10T02:59:15.228Z,12.80
2017-11-10T03:01:43.528Z,15.47
2017-11-10T03:04:11.792Z,12.40
2017-11-10T03:06:40.085Z,13.47
2017-11-10T03:09:08.427Z,11.63
2017-11-10T03:11:36.694Z,11.27
2017-11-10T03:14:05.027Z,11.00
2017-11-10T03:16:33.283Z,11.90
2017-11-10T03:19:01.583Z,14.60
2017-11-10T03:21:29.860Z,11.60
2017-11-10T03:23:58.240Z,12.83
2017-11-10T03:26:26.519Z,11.37
2017-11-10T03:28:54.805Z,11.10
2017-11-10T03:31:23.890Z,13.20
2017-11-10T03:33:52.282Z,13.43
2017-11-10T03:36:22.055Z,11.00
2017-11-10T03:38:50.333Z,11.77
2017-11-10T03:41:18.585Z,12.63
2017-11-10T03:43:46.861Z,10.97
2017-11-10T03:46:15.190Z,12.73
2017-11-10T03:48:43.477Z,9.90
2017-11-10T03:51:11.739Z,11.73
2017-11-10T03:53:40.126Z,11.00
2017-11-10T03:56:08.494Z,12.97
2017-11-10T03:58:36.878Z,11.43
2017-11-10T04:01:05.124Z,10.47
2017-11-10T04:03:33.401Z,12.43
2017-11-10T04:06:01.661Z,11.37
2017-11-10T04:08:29.946Z,11.27
2017-11-10T04:10:58.204Z,10.50
2017-11-10T04:13:26.480Z,12.70
2017-11-10T04:15:54.790Z,12.10
2017-11-10T04:18:23.054Z,11.17
2017-11-10T04:20:51.330Z,11.10
2017-11-10T04:23:19.715Z,13.17
2017-11-10T04:25:47.981Z,12.13
2017-11-10T04:28:16.268Z,11.50
2017-11-10T04:30:44.546Z,11.17
2017-11-10T04:33:12.923Z,12.30
2017-11-10T04:35:41.169Z,11.07
2017-11-10T04:38:09.454Z,12.43
2017-11-10T04:40:37.728Z,10.50
2017-11-10T04:43:06.013Z,10.20
2017-11-10T04:45:34.305Z,11.87
2017-11-10T04:48:02.581Z,11.33
2017-11-10T04:50:30.832Z,11.77
2017-11-10T04:52:59.136Z,11.37
2017-11-10T04:55:27.401Z,10.73
2017-11-10T04:57:55.686Z,11.40
2017-11-10T05:00:23.957Z,13.80
2017-11-10T05:02:52.250Z,13.63
2017-11-10T05:05:20.506Z,12.90
2017-11-10T05:07:48.767Z,12.77
2017-11-10T05:10:17.046Z,14.70
2017-11-10T05:12:45.306Z,14.40
2017-11-10T05:15:13.587Z,12.63
2017-11-10T05:17:41.842Z,14.00
2017-11-10T05:20:10.884Z,16.10
2017-11-10T05:22:39.333Z,14.43
2017-11-10T05:25:07.649Z,14.60
2017-11-10T05:27:35.914Z,13.50
2017-11-10T05:30:04.188Z,13.47
2017-11-10T05:32:32.453Z,16.60
2017-11-10T05:35:00.733Z,15.70
2017-11-10T05:37:29.030Z,16.20
2017-11-10T05:39:57.313Z,16.73
2017-11-10T05:42:25.565Z,18.27
2017-11-10T05:44:53.848Z,18.07
2017-11-10T05:47:22.113Z,16.73
2017-11-10T05:49:50.401Z,15.80
2017-11-10T05:52:18.663Z,16.00
2017-11-10T05:54:46.937Z,17.03
2017-11-10T05:57:15.205Z,15.10
2017-11-10T05:59:43.523Z,14.20
2017-11-10T06:02:11.794Z,15.13
2017-11-10T06:04:40.088Z,14.30
2017-11-10T06:07:08.342Z,15.90
2017-11-10T06:09:36.630Z,16.10
2017-11-10T06:12:04.895Z,14.40
2017-11-10T06:14:33.184Z,14.37
2017-11-10T06:17:01.457Z,15.50
2017-11-10T06:19:29.725Z,14.67
2017-11-10T06:21:58.001Z,14.00
2017-11-10T06:24:26.400Z,13.67
2017-11-10T06:26:54.671Z,14.57
2017-11-10T06:29:22.981Z,15.03
2017-11-10T06:31:52.046Z,14.20
2017-11-10T06:34:20.426Z,13.60
2017-11-10T06:36:48.701Z,13.30
2017-11-10T06:39:16.976Z,16.10
2017-11-10T06:41:45.244Z,15.80
2017-11-10T06:44:13.640Z,15.30
2017-11-10T06:46:41.894Z,14.10
2017-11-10T06:49:10.207Z,15.00
2017-11-10T06:51:39.224Z,15.07
2017-11-10T06:54:08.269Z,13.47
2017-11-10T06:56:36.551Z,13.47
2017-11-10T06:59:04.833Z,14.10
2017-11-10T07:01:33.080Z,13.70
2017-11-10T07:04:01.361Z,12.30
2017-11-10T07:06:29.865Z,14.90
2017-11-10T07:08:58.141Z,13.40
2017-11-10T07:11:26.529Z,13.30
2017-11-10T07:13:54.776Z,12.10
2017-11-10T07:16:23.072Z,12.70
2017-11-10T07:18:51.356Z,15.63
2017-11-10T07:21:19.635Z,13.40
2017-11-10T07:23:48.019Z,13.63
2017-11-10T07:26:16.414Z,13.40
2017-11-10T07:28:44.699Z,13.13
2017-11-10T07:31:12.962Z,15.30
2017-11-10T07:33:41.236Z,11.40
2017-11-10T07:36:10.282Z,12.50
2017-11-10T07:38:38.538Z,13.23
2017-11-10T07:41:06.813Z,12.33
2017-11-10T07:43:35.081Z,13.27
2017-11-10T07:46:03.363Z,13.00
2017-11-10T07:48:31.622Z,12.90
2017-11-10T07:50:59.900Z,13.83
2017-11-10T07:53:28.171Z,13.50
2017-11-10T07:55:57.211Z,12.53
2017-11-10T07:58:25.497Z,13.63
2017-11-10T08:00:53.813Z,12.40
2017-11-10T08:03:22.853Z,11.50
2017-11-10T08:05:51.179Z,11.67
2017-11-10T08:08:20.214Z,14.10
2017-11-10T08:10:48.519Z,11.97
2017-11-10T08:13:16.769Z,13.80
2017-11-10T08:15:45.076Z,13.40
2017-11-10T08:18:13.361Z,10.50
2017-11-10T08:20:41.721Z,12.67
2017-11-10T08:23:10.012Z,12.70
2017-11-10T08:25:38.270Z,9.73
2017-11-10T08:28:06.549Z,10.80
2017-11-10T08:30:34.835Z,12.90
2017-11-10T08:33:03.154Z,13.60
2017-11-10T08:35:32.176Z,10.57
2017-11-10T08:38:00.453Z,14.00
2017-11-10T08:40:28.709Z,11.90
2017-11-10T08:42:56.993Z,9.80
2017-11-10T08:45:25.260Z,11.60
2017-11-10T08:47:54.330Z,11.40
2017-11-10T08:50:22.690Z,13.33
2017-11-10T08:52:50.989Z,11.13
2017-11-10T08:55:19.275Z,12.13
2017-11-10T08:57:48.335Z,10.40
2017-11-10T09:00:16.616Z,10.50
2017-11-10T09:02:45.018Z,12.07
2017-11-10T09:05:14.042Z,11.30
2017-11-10T09:07:42.363Z,11.83
2017-11-10T09:10:10.632Z,10.83
2017-11-10T09:12:39.017Z,11.40
2017-11-10T09:15:07.302Z,12.97
2017-11-10T09:17:35.603Z,11.93
2017-11-10T09:20:05.361Z,11.40
2017-11-10T09:22:33.651Z,11.00
2017-11-10T09:25:01.913Z,12.33
2017-11-10T09:27:30.547Z,10.60
2017-11-10T09:30:04.175Z,11.20
2017-11-10T09:32:43.131Z,10.33
2017-11-10T09:38:28.883Z,12.30
2017-11-10T09:41:14.814Z,10.60
2017-11-10T09:43:44.680Z,13.27
2017-11-10T09:46:13.873Z,11.80
2017-11-10T09:48:47.828Z,9.60
2017-11-10T09:54:26.224Z,9.93
2017-11-10T09:56:58.057Z,9.23
2017-11-10T10:02:44.549Z,9.73
2017-11-10T10:05:16.205Z,10.27
2017-11-10T10:07:45.287Z,8.93
2017-11-10T10:13:18.344Z,9.33
2017-11-10T10:19:07.197Z,8.83
2017-11-10T10:21:41.115Z,10.77
2017-11-10T10:24:09.388Z,10.97
2017-11-10T10:26:37.659Z,9.60
2017-11-10T10:29:06.709Z,10.17
2017-11-10T10:31:34.957Z,9.23
2017-11-10T10:34:03.235Z,9.20
2017-11-10T10:36:31.482Z,9.07
2017-11-10T10:39:00.531Z,10.07
2017-11-10T10:41:28.785Z,8.10
2017-11-10T10:43:57.083Z,9.00
2017-11-10T10:46:25.349Z,9.57
2017-11-10T10:48:53.624Z,8.93
2017-11-10T10:51:21.913Z,8.40
2017-11-10T10:53:50.202Z,8.40
2017-11-10T10:56:18.570Z,9.83
2017-11-10T10:58:46.837Z,8.43
2017-11-10T11:01:15.106Z,9.50
2017-11-10T11:03:43.384Z,8.70
2017-11-10T11:06:11.633Z,8.17
2017-11-10T11:08:39.919Z,8.87
2017-11-10T11:11:08.169Z,8.60
2017-11-10T11:13:37.220Z,8.77
2017-11-10T11:16:05.497Z,8.40
2017-11-10T11:18:33.800Z,8.60
2017-11-10T11:21:02.154Z,8.20
2017-11-10T11:23:30.434Z,8.90
2017-11-10T11:25:58.695Z,9.40
2017-11-10T11:28:26.979Z,8.87
2017-11-10T11:30:55.237Z,9.10
2017-11-10T11:33:23.513Z,8.27
2017-11-10T11:35:51.775Z,7.80
2017-11-10T11:38:20.050Z,8.70
2017-11-10T11:40:48.313Z,8.17
2017-11-10T11:43:17.353Z,9.40
2017-11-10T11:45:45.748Z,8.80
2017-11-10T11:48:14.009Z,8.23
2017-11-10T11:50:42.286Z,8.30
2017-11-10T11:53:10.565Z,7.80
2017-11-10T11:55:38.827Z,8.40
2017-11-10T11:58:07.104Z,7.60
2017-11-10T12:00:35.383Z,9.13
2017-11-10T12:03:03.690Z,10.20
2017-11-10T12:05:31.958Z,7.87
2017-11-10T12:08:00.239Z,7.60
2017-11-10T12:10:28.494Z,7.37
2017-11-10T12:12:56.788Z,7.13
2017-11-10T12:15:25.054Z,7.67
2017-11-10T12:17:53.327Z,8.27
2017-11-10T12:20:21.602Z,7.07
2017-11-10T12:22:49.894Z,7.50
2017-11-10T12:25:18.183Z,10.30
2017-11-10T12:27:46.456Z,7.97
2017-11-10T12:30:14.813Z,7.10
2017-11-10T12:32:43.113Z,8.43
2017-11-10T12:35:11.388Z,7.87
2017-11-10T12:37:39.660Z,8.47
2017-11-10T12:40:07.957Z,8.03
2017-11-10T12:42:36.198Z,8.80
2017-11-10T12:45:04.484Z,7.73
2017-11-10T12:47:32.741Z,9.97
2017-11-10T12:50:01.048Z,9.20
2017-11-10T12:52:30.105Z,8.63
2017-11-10T12:54:58.397Z,9.40
2017-11-10T12:57:26.666Z,9.13
2017-11-10T12:59:54.928Z,9.33
2017-11-10T13:02:23.196Z,8.10
2017-11-10T13:04:52.231Z,9.20
2017-11-10T13:07:20.512Z,9.50
2017-11-10T13:09:48.797Z,8.80
2017-11-10T13:12:17.046Z,8.53
2017-11-10T13:14:45.322Z,10.13
2017-11-10T13:17:13.592Z,14.27
2017-11-10T13:19:41.908Z,9.93
2017-11-10T13:22:10.161Z,9.40
2017-11-10T13:24:38.437Z,10.50
2017-11-10T13:27:06.704Z,7.87
2017-11-10T13:29:35.000Z,9.43
2017-11-10T13:32:03.249Z,8.40
2017-11-10T13:34:31.513Z,9.00
2017-11-10T13:37:00.541Z,8.67
2017-11-10T13:39:28.799Z,7.57
2017-11-10T13:41:57.069Z,8.60
2017-11-10T13:44:25.330Z,7.40
2017-11-10T13:46:54.365Z,8.07
2017-11-10T13:49:22.674Z,8.07
2017-11-10T13:51:50.948Z,8.90
2017-11-10T13:54:19.215Z,6.77
2017-11-10T13:56:47.484Z,7.53
2017-11-10T13:59:15.750Z,7.73
2017-11-10T14:01:44.053Z,8.63
2017-11-10T14:04:12.298Z,6.10
2017-11-10T14:06:40.577Z,6.53
2017-11-10T14:09:08.836Z,6.97
2017-11-10T14:11:37.122Z,8.50
2017-11-10T14:14:05.377Z,7.80
2017-11-10T14:16:34.414Z,5.57
2017-11-10T14:19:02.697Z,6.73
2017-11-10T14:21:30.973Z,6.20
2017-11-10T14:23:59.222Z,6.03
2017-11-10T14:26:27.534Z,7.10
2017-11-10T14:28:55.781Z,6.33
2017-11-10T14:31:24.127Z,6.60
2017-11-10T14:33:53.179Z,6.20
2017-11-10T14:36:21.470Z,6.30
2017-11-10T14:38:49.722Z,6.43
2017-11-10T14:41:18.005Z,6.00
2017-11-10T14:43:46.251Z,6.47
2017-11-10T14:46:14.516Z,5.30
2017-11-10T14:48:43.536Z,7.87
2017-11-10T14:51:11.823Z,5.90
2017-11-10T14:53:40.073Z,6.17
2017-11-10T14:56:08.354Z,6.53
2017-11-10T14:58:36.609Z,5.93
2017-11-10T15:01:05.683Z,6.07
2017-11-10T15:03:34.051Z,6.43
2017-11-10T15:06:02.327Z,6.40
2017-11-10T15:08:30.583Z,6.57
2017-11-10T15:10:58.876Z,4.80
2017-11-10T15:13:27.133Z,5.33
2017-11-10T15:15:55.405Z,6.20
2017-11-10T15:18:23.676Z,6.03
2017-11-10T15:20:51.989Z,5.73
2017-11-10T15:23:20.318Z,5.50
2017-11-10T15:25:49.334Z,5.30
2017-11-10T15:28:17.610Z,5.43
2017-11-10T15:30:45.881Z,6.43
2017-11-10T15:33:14.196Z,6.23
2017-11-10T15:35:42.441Z,6.27
2017-11-10T15:38:10.721Z,6.40
2017-11-10T15:40:38.981Z,7.33
2017-11-10T15:43:07.307Z,7.47
2017-11-10T15:45:35.584Z,6.00
2017-11-10T15:48:03.859Z,6.50
2017-11-10T15:50:32.113Z,6.77
2017-11-10T15:53:00.394Z,7.40
2017-11-10T15:55:28.690Z,6.03
2017-11-10T15:57:57.065Z,7.10
2017-11-10T16:00:25.336Z,5.50
2017-11-10T16:02:53.651Z,5.50
2017-11-10T16:05:21.896Z,6.67
2017-11-10T16:07:50.175Z,5.63
2017-11-10T16:10:18.426Z,6.60
2017-11-10T16:12:46.713Z,5.53
2017-11-10T16:15:14.972Z,5.33
2017-11-10T16:17:43.247Z,6.63
2017-11-10T16:20:11.560Z,4.83
2017-11-10T16:22:39.826Z,4.77
2017-11-10T16:25:08.087Z,6.07
2017-11-10T16:27:36.358Z,6.40
2017-11-10T16:30:04.665Z,6.07
2017-11-10T16:32:32.930Z,4.80
2017-11-10T16:35:01.191Z,5.80
2017-11-10T16:37:29.478Z,6.53
2017-11-10T16:39:57.734Z,6.30
2017-11-10T16:42:25.991Z,5.63
2017-11-10T16:44:55.036Z,5.30
2017-11-10T16:47:23.329Z,5.50
2017-11-10T16:49:51.625Z,5.23
2017-11-10T16:52:19.979Z,5.30
2017-11-10T16:54:48.240Z,5.43
2017-11-10T16:57:16.511Z,5.80
2017-11-10T16:59:44.801Z,5.47
2017-11-10T17:02:13.033Z,5.53
2017-11-10T17:04:42.077Z,5.30
2017-11-10T17:07:10.346Z,5.83
2017-11-10T17:09:39.410Z,5.63
2017-11-10T17:12:07.689Z,5.10
2017-11-10T17:14:35.968Z,4.60
2017-11-10T17:17:04.237Z,4.50
2017-11-10T17:19:32.613Z,5.23
2017-11-10T17:22:00.883Z,5.40
2017-11-10T17:24:29.163Z,6.23
2017-11-10T17:26:57.432Z,5.23
2017-11-10T17:29:25.700Z,5.30
2017-11-10T17:31:54.007Z,5.20
2017-11-10T17:34:22.279Z,5.40
2017-11-10T17:36:50.538Z,5.37
2017-11-10T17:39:19.557Z,5.03
2017-11-10T17:41:47.820Z,4.73
2017-11-10T17:44:16.963Z,3.83
2017-11-10T17:46:45.213Z,3.90
2017-11-10T17:49:13.481Z,3.73
2017-11-10T17:51:41.746Z,4.40
2017-11-10T17:54:10.894Z,4.40
2017-11-10T17:56:39.181Z,3.50
2017-11-10T17:59:08.261Z,3.40
2017-11-10T18:01:36.513Z,3.60
2017-11-10T18:04:04.796Z,3.50
2017-11-10T18:06:33.109Z,2.93
2017-11-10T18:09:01.404Z,3.10
2017-11-10T18:11:30.425Z,2.23
2017-11-10T18:13:58.685Z,2.83
2017-11-10T18:16:27.740Z,3.37
2017-11-10T18:18:55.985Z,2.30
2017-11-10T18:21:24.279Z,2.40
2017-11-10T18:23:52.542Z,2.00
2017-11-10T18:26:20.904Z,2.60
2017-11-10T18:28:49.914Z,1.80
2017-11-10T18:31:18.197Z,1.70
2017-11-10T18:33:46.643Z,2.33
2017-11-10T18:36:15.682Z,2.07
2017-11-10T18:38:43.942Z,2.13
2017-11-10T18:41:12.255Z,1.57
2017-11-10T18:43:40.543Z,1.73
2017-11-10T18:46:08.805Z,1.63
2017-11-10T18:48:42.866Z,1.20
2017-11-10T18:51:11.912Z,1.70
2017-11-10T18:53:42.102Z,1.20
2017-11-10T18:56:10.365Z,1.80
2017-11-10T18:58:38.612Z,1.97
2017-11-10T19:01:06.883Z,1.87
2017-11-10T19:03:35.149Z,1.80
2017-11-10T19:06:03.533Z,1.50
2017-11-10T19:08:33.294Z,1.20
2017-11-10T19:11:01.609Z,1.37
2017-11-10T19:13:29.875Z,1.73
2017-11-10T19:15:58.163Z,1.53
2017-11-10T19:18:26.401Z,1.80
2017-11-10T19:20:54.675Z,1.27
2017-11-10T19:23:23.054Z,1.30
2017-11-10T19:25:51.326Z,2.00
2017-11-10T19:28:19.589Z,1.40
2017-11-10T19:30:48.648Z,1.47
2017-11-10T19:33:16.891Z,1.37
2017-11-10T19:35:45.174Z,1.10
2017-11-10T19:38:13.479Z,1.60
2017-11-10T19:40:41.751Z,1.07
2017-11-10T19:43:09.997Z,0.77
2017-11-10T19:45:38.290Z,1.23
2017-11-10T19:48:06.538Z,1.23
2017-11-10T19:50:34.859Z,1.70
2017-11-10T19:53:03.120Z,2.07
2017-11-10T19:55:31.392Z,1.70
2017-11-10T19:57:59.652Z,1.20
2017-11-10T20:00:27.926Z,1.17
2017-11-10T20:02:56.177Z,0.97
2017-11-10T20:05:25.248Z,1.10
2017-11-10T20:07:53.559Z,1.10
2017-11-10T20:10:22.602Z,0.90
2017-11-10T20:12:50.889Z,0.70
2017-11-10T20:15:19.151Z,1.63
2017-11-10T20:17:47.420Z,0.90
2017-11-10T20:20:15.719Z,1.00
2017-11-10T20:22:44.000Z,0.80
2017-11-10T20:25:12.269Z,1.50
2017-11-10T20:27:40.521Z,1.07
2017-11-10T20:30:08.807Z,1.40
2017-11-10T20:32:37.073Z,1.90
2017-11-10T20:35:05.317Z,1.37
2017-11-10T20:37:34.377Z,1.37
2017-11-10T20:40:02.656Z,1.00
2017-11-10T20:42:30.931Z,1.60
2017-11-10T20:44:59.185Z,1.00
2017-11-10T20:47:27.460Z,1.17
2017-11-10T20:49:55.710Z,1.10
2017-11-10T20:52:24.867Z,0.90
2017-11-10T20:54:53.113Z,1.30
2017-11-10T20:57:21.411Z,1.30
2017-11-10T20:59:49.693Z,2.13
2017-11-10T21:02:18.025Z,1.20
2017-11-10T21:04:47.045Z,2.17
2017-11-10T21:07:16.081Z,1.77
2017-11-10T21:09:45.089Z,1.70
2017-11-10T21:12:14.126Z,1.70
2017-11-10T21:14:42.716Z,1.57
2017-11-10T21:17:11.009Z,1.60
2017-11-10T21:19:39.249Z,1.30
2017-11-10T21:22:07.521Z,1.13
2017-11-10T21:24:35.776Z,1.27
2017-11-10T21:27:04.813Z,1.20
2017-11-10T21:29:33.076Z,0.93
2017-11-10T21:32:01.348Z,1.30
2017-11-10T21:34:29.593Z,4.43
2017-11-10T21:36:58.650Z,1.37
2017-11-10T21:39:32.715Z,1.00
2017-11-10T21:42:01.781Z,1.50
2017-11-10T21:44:30.853Z,1.67
2017-11-10T21:46:59.101Z,0.90
2017-11-10T21:49:27.377Z,1.80
2017-11-10T21:51:55.624Z,1.00
2017-11-10T21:54:24.665Z,1.60
2017-11-10T21:56:52.922Z,0.93
2017-11-10T21:59:21.188Z,1.50
2017-11-10T22:01:49.447Z,1.50
2017-11-10T22:04:18.488Z,1.30
2017-11-10T22:06:46.736Z,1.40
2017-11-10T22:09:15.010Z,1.27
2017-11-10T22:11:44.052Z,1.30
2017-11-10T22:14:12.444Z,1.80
2017-11-10T22:16:40.715Z,1.63
2017-11-10T22:19:08.980Z,1.50
2017-11-10T22:21:37.241Z,1.63
2017-11-10T22:24:05.560Z,2.77
2017-11-10T22:26:33.913Z,1.30
2017-11-10T22:29:02.182Z,1.20
2017-11-10T22:31:30.446Z,1.30
2017-11-10T22:33:58.712Z,0.97
2017-11-10T22:36:26.974Z,1.10
2017-11-10T22:38:56.039Z,1.50
2017-11-10T22:41:24.419Z,1.30
2017-11-10T22:43:53.506Z,1.03
2017-11-10T22:46:21.770Z,1.17
2017-11-10T22:48:50.041Z,1.00
2017-11-10T22:51:18.288Z,1.10
2017-11-10T22:53:46.610Z,0.83
2017-11-10T22:56:14.894Z,0.90
2017-11-10T22:58:43.173Z,0.80
2017-11-10T23:01:12.254Z,0.70
2017-11-10T23:03:40.623Z,0.90
2017-11-10T23:06:08.903Z,0.80
2017-11-10T23:08:37.174Z,1.00
2017-11-10T23:11:05.438Z,0.87
2017-11-10T23:13:33.723Z,0.90
2017-11-10T23:16:02.000Z,0.80
2017-11-10T23:18:30.403Z,1.00
2017-11-10T23:20:58.652Z,0.90
2017-11-10T23:23:26.966Z,0.80
2017-11-10T23:25:55.233Z,0.80
2017-11-10T23:28:23.498Z,1.10
2017-11-10T23:30:51.782Z,0.70
2017-11-10T23:33:20.059Z,1.10
2017-11-10T23:35:48.314Z,1.00
2017-11-10T23:38:16.622Z,0.97
2017-11-10T23:40:44.999Z,1.03
2017-11-10T23:43:14.822Z,1.30
2017-11-10T23:45:43.182Z,1.10
2017-11-10T23:48:11.490Z,1.50
2017-11-10T23:50:39.742Z,1.10
2017-11-10T23:53:07.994Z,1.00
2017-11-10T23:55:36.343Z,1.27
2017-11-10T23:58:05.396Z,1.10
